Terminal Aerodrome Forecast
Issued by NWS Austin/San Antonio, TX

Current Version | Previous Version | Text Only | Print | Product List | Glossary Off
Versions: 1 2 3 4 5 6 7 8 9 10 11 12 13 14 15 16 17 18 19 20 21 22 23

000
FTUS44 KEWX 280500
TAFAUS
TAF
KAUS 280520Z 2806/2912 17010KT P6SM FEW060
     FM280700 21005KT P6SM SCT010
     FM281400 18010KT P6SM FEW050=

USA.gov is the U.S. government's official web portal to all federal, state and local government web resources and services.